createdAt,value
2018-11-04T00:00:04.343Z,21.73
2018-11-04T00:02:33.022Z,23.47
2018-11-04T00:05:01.641Z,24.30
2018-11-04T00:07:30.387Z,23.53
2018-11-04T00:09:59.035Z,22.07
2018-11-04T00:12:27.632Z,22.70
2018-11-04T00:14:56.303Z,22.73
2018-11-04T00:17:25.098Z,22.57
2018-11-04T00:19:53.947Z,21.47
2018-11-04T00:22:22.863Z,23.93
2018-11-04T00:24:51.509Z,27.73
2018-11-04T00:27:20.337Z,22.43
2018-11-04T00:29:49.122Z,25.17
2018-11-04T00:32:17.883Z,22.70
2018-11-04T00:34:46.565Z,25.37
2018-11-04T00:37:15.264Z,23.20
2018-11-04T00:39:43.890Z,24.37
2018-11-04T00:42:12.523Z,26.33
2018-11-04T00:44:41.207Z,23.77
2018-11-04T00:47:09.879Z,24.03
2018-11-04T00:49:38.412Z,23.90
2018-11-04T00:52:07.161Z,24.60
2018-11-04T00:54:35.919Z,22.27
2018-11-04T00:57:04.854Z,27.20
2018-11-04T00:59:33.615Z,24.73
2018-11-04T01:02:02.365Z,30.17
2018-11-04T01:04:31.017Z,26.80
2018-11-04T01:06:59.613Z,24.00
2018-11-04T01:09:28.324Z,24.13
2018-11-04T01:11:57.068Z,25.47
2018-11-04T01:14:25.880Z,23.23
2018-11-04T01:16:54.434Z,23.63
2018-11-04T01:19:23.289Z,24.87
2018-11-04T01:21:51.972Z,25.63
2018-11-04T01:24:20.689Z,24.50
2018-11-04T01:26:49.341Z,23.63
2018-11-04T01:29:18.075Z,24.77
2018-11-04T01:31:46.622Z,28.53
2018-11-04T01:34:15.319Z,26.60
2018-11-04T01:36:44.120Z,27.17
2018-11-04T01:39:12.781Z,25.77
2018-11-04T01:41:41.694Z,29.67
2018-11-04T01:44:11.496Z,38.80
2018-11-04T01:46:41.548Z,32.83
2018-11-04T01:49:10.375Z,32.70
2018-11-04T01:51:39.389Z,32.53
2018-11-04T01:54:08.251Z,38.43
2018-11-04T01:56:36.986Z,32.33
2018-11-04T01:59:06.175Z,32.53
2018-11-04T02:01:34.784Z,31.30
2018-11-04T02:04:03.610Z,34.03
2018-11-04T02:06:32.356Z,34.13
2018-11-04T02:09:02.149Z,31.77
2018-11-04T02:11:30.806Z,30.43
2018-11-04T02:13:59.543Z,32.80
2018-11-04T02:16:28.289Z,31.67
2018-11-04T02:18:57.077Z,28.23
2018-11-04T02:21:25.657Z,29.77
2018-11-04T02:23:54.388Z,30.47
2018-11-04T02:26:23.251Z,28.67
2018-11-04T02:28:51.939Z,32.57
2018-11-04T02:31:20.601Z,27.40
2018-11-04T02:33:49.298Z,29.50
2018-11-04T02:36:17.942Z,31.17
2018-11-04T02:38:46.586Z,32.43
2018-11-04T02:41:15.236Z,29.63
2018-11-04T02:43:43.898Z,28.87
2018-11-04T02:46:12.868Z,29.43
2018-11-04T02:48:41.537Z,26.07
2018-11-04T02:51:10.386Z,29.90
2018-11-04T02:53:39.107Z,29.33
2018-11-04T02:56:07.852Z,29.00
2018-11-04T02:58:36.490Z,30.23
2018-11-04T03:01:05.122Z,28.17
2018-11-04T03:03:33.908Z,30.23
2018-11-04T03:06:02.880Z,30.53
2018-11-04T03:08:32.621Z,30.00
2018-11-04T03:11:02.960Z,30.87
2018-11-04T03:13:31.700Z,28.53
2018-11-04T03:16:00.305Z,28.80
2018-11-04T03:18:28.922Z,28.30
2018-11-04T03:20:57.454Z,27.40
2018-11-04T03:23:26.017Z,29.27
2018-11-04T03:25:54.584Z,27.77
2018-11-04T03:28:23.376Z,29.73
2018-11-04T03:30:52.082Z,28.73
2018-11-04T03:33:20.669Z,27.30
2018-11-04T03:35:49.304Z,29.90
2018-11-04T03:38:17.950Z,28.17
2018-11-04T03:40:46.471Z,28.93
2018-11-04T03:43:15.054Z,30.00
2018-11-04T03:45:43.990Z,30.17
2018-11-04T03:48:12.651Z,29.77
2018-11-04T03:50:41.465Z,30.60
2018-11-04T03:53:10.163Z,27.37
2018-11-04T03:55:38.924Z,27.77
2018-11-04T03:58:07.567Z,28.73
2018-11-04T04:00:36.841Z,27.90
2018-11-04T04:03:05.802Z,29.93
2018-11-04T04:05:34.637Z,27.27
2018-11-04T04:08:03.596Z,31.20
2018-11-04T04:10:32.433Z,30.43
2018-11-04T04:13:01.182Z,29.93
2018-11-04T04:15:29.951Z,28.50
2018-11-04T04:17:58.676Z,28.67
2018-11-04T04:20:27.348Z,27.43
2018-11-04T04:22:55.980Z,29.20
2018-11-04T04:25:24.847Z,30.93
2018-11-04T04:27:53.718Z,30.67
2018-11-04T04:30:22.348Z,25.80
2018-11-04T04:32:50.987Z,27.67
2018-11-04T04:35:19.598Z,29.13
2018-11-04T04:37:48.350Z,28.83
2018-11-04T04:40:17.379Z,29.30
2018-11-04T04:42:46.141Z,26.53
2018-11-04T04:45:14.833Z,27.70
2018-11-04T04:47:43.608Z,29.40
2018-11-04T04:50:12.341Z,27.20
2018-11-04T04:52:41.004Z,28.13
2018-11-04T04:55:09.589Z,26.80
2018-11-04T04:57:38.388Z,29.43
2018-11-04T05:00:07.973Z,28.90
2018-11-04T05:02:36.616Z,30.00
2018-11-04T05:05:05.436Z,28.23
2018-11-04T05:07:34.014Z,28.00
2018-11-04T05:10:02.553Z,31.37
2018-11-04T05:12:31.207Z,29.47
2018-11-04T05:14:59.728Z,30.23
2018-11-04T05:17:28.489Z,29.33
2018-11-04T05:19:57.063Z,25.67
2018-11-04T05:22:25.622Z,28.77
2018-11-04T05:24:54.386Z,30.53
2018-11-04T05:27:22.997Z,29.40
2018-11-04T05:29:51.712Z,30.23
2018-11-04T05:32:20.416Z,28.30
2018-11-04T05:34:49.154Z,30.47
2018-11-04T05:37:17.672Z,28.60
2018-11-04T05:39:46.390Z,28.63
2018-11-04T05:42:15.111Z,27.10
2018-11-04T05:44:43.674Z,30.90
2018-11-04T05:47:12.305Z,27.53
2018-11-04T05:49:40.962Z,29.90
2018-11-04T05:52:09.462Z,27.27
2018-11-04T05:54:38.165Z,27.60
2018-11-04T05:57:06.883Z,29.10
2018-11-04T05:59:35.558Z,29.67
2018-11-04T06:02:04.349Z,25.10
2018-11-04T06:04:33.715Z,26.30
2018-11-04T06:07:03.555Z,28.93
2018-11-04T06:09:32.246Z,24.50
2018-11-04T06:12:00.923Z,26.77
2018-11-04T06:14:29.550Z,28.53
2018-11-04T06:16:58.211Z,25.50
2018-11-04T06:19:26.888Z,26.13
2018-11-04T06:21:55.462Z,24.77
2018-11-04T06:24:24.234Z,22.77
2018-11-04T06:26:52.894Z,24.87
2018-11-04T06:29:21.902Z,27.27
2018-11-04T06:31:50.600Z,30.03
2018-11-04T06:34:19.308Z,26.63
2018-11-04T06:36:47.850Z,26.67
2018-11-04T06:39:16.534Z,23.60
2018-11-04T06:41:45.411Z,29.40
2018-11-04T06:44:14.228Z,24.60
2018-11-04T06:46:42.819Z,25.77
2018-11-04T06:49:11.570Z,24.47
2018-11-04T06:51:40.261Z,27.03
2018-11-04T06:54:08.970Z,26.97
2018-11-04T06:56:37.705Z,25.47
2018-11-04T06:59:06.555Z,24.90
2018-11-04T07:01:35.339Z,27.93
2018-11-04T07:04:16.049Z,25.90
2018-11-04T07:06:44.776Z,30.07
2018-11-04T07:09:14.235Z,27.40
2018-11-04T07:11:42.856Z,27.20
2018-11-04T07:14:11.548Z,26.23
2018-11-04T07:16:40.252Z,25.70
2018-11-04T07:19:08.923Z,25.47
2018-11-04T07:21:37.721Z,28.77
2018-11-04T07:24:07.143Z,29.23
2018-11-04T07:26:39.755Z,26.63
2018-11-04T07:29:09.272Z,26.17
2018-11-04T07:31:37.983Z,27.22
2018-11-04T07:34:07.275Z,30.00
2018-11-04T07:36:36.015Z,26.20
2018-11-04T07:39:07.669Z,27.63
2018-11-04T07:41:36.231Z,28.70
2018-11-04T07:44:05.175Z,30.23
2018-11-04T07:46:33.771Z,28.83
2018-11-04T07:49:02.638Z,29.20
2018-11-04T07:51:31.436Z,30.47
2018-11-04T07:54:00.221Z,29.97
2018-11-04T07:56:29.234Z,32.90
2018-11-04T07:58:58.024Z,28.93
2018-11-04T08:01:26.624Z,32.33
2018-11-04T08:03:55.447Z,29.83
2018-11-04T08:06:24.058Z,32.30
2018-11-04T08:08:52.697Z,34.43
2018-11-04T08:11:21.271Z,32.43
2018-11-04T08:13:50.053Z,33.00
2018-11-04T08:16:18.747Z,32.23
2018-11-04T08:18:47.396Z,28.40
2018-11-04T08:21:16.113Z,31.70
2018-11-04T08:23:44.881Z,32.87
2018-11-04T08:26:13.703Z,29.23
2018-11-04T08:28:42.364Z,34.57
2018-11-04T08:31:11.053Z,33.43
2018-11-04T08:33:39.858Z,31.20
2018-11-04T08:36:08.460Z,33.17
2018-11-04T08:38:37.233Z,33.87
2018-11-04T08:41:05.893Z,35.07
2018-11-04T08:43:34.471Z,33.40
2018-11-04T08:46:04.334Z,33.10
2018-11-04T08:48:33.072Z,30.17
2018-11-04T08:51:01.754Z,30.83
2018-11-04T08:53:30.390Z,30.20
2018-11-04T08:55:59.142Z,32.27
2018-11-04T08:58:27.796Z,31.47
2018-11-04T09:00:56.591Z,32.20
2018-11-04T09:03:25.256Z,32.53
2018-11-04T09:05:53.863Z,34.43
2018-11-04T09:08:22.578Z,34.37
2018-11-04T09:10:51.222Z,33.37
2018-11-04T09:13:19.927Z,30.23
2018-11-04T09:15:48.896Z,33.30
2018-11-04T09:18:17.584Z,32.40
2018-11-04T09:20:46.191Z,34.80
2018-11-04T09:23:14.910Z,33.17
2018-11-04T09:25:43.513Z,34.73
2018-11-04T09:28:12.276Z,35.87
2018-11-04T09:30:41.209Z,33.80
2018-11-04T09:33:12.283Z,32.03
2018-11-04T09:35:41.319Z,33.97
2018-11-04T09:38:09.788Z,35.03
2018-11-04T09:40:38.756Z,35.13
2018-11-04T09:43:07.424Z,33.83
2018-11-04T09:45:36.071Z,38.53
2018-11-04T09:48:04.901Z,36.83
2018-11-04T09:50:33.574Z,34.93
2018-11-04T09:53:02.318Z,35.00
2018-11-04T09:55:31.177Z,35.80
2018-11-04T09:57:59.903Z,33.33
2018-11-04T10:00:29.289Z,37.43
2018-11-04T10:02:57.862Z,36.17
2018-11-04T10:05:26.457Z,37.30
2018-11-04T10:07:55.043Z,39.07
2018-11-04T10:10:23.795Z,41.87
2018-11-04T10:12:52.540Z,39.63
2018-11-04T10:15:21.834Z,40.57
2018-11-04T10:17:51.534Z,45.87
2018-11-04T10:20:20.367Z,39.73
2018-11-04T10:22:48.847Z,39.83
2018-11-04T10:25:17.808Z,40.73
2018-11-04T10:27:47.922Z,41.70
2018-11-04T10:30:17.508Z,47.83
2018-11-04T10:32:46.342Z,43.77
2018-11-04T10:35:14.989Z,40.73
2018-11-04T10:37:44.099Z,40.17
2018-11-04T10:40:13.615Z,41.43
2018-11-04T10:42:43.720Z,40.60
2018-11-04T10:45:13.520Z,40.60
2018-11-04T10:47:42.691Z,39.53
2018-11-04T10:50:12.957Z,34.10
2018-11-04T10:52:41.651Z,34.50
2018-11-04T10:55:11.204Z,33.10
2018-11-04T10:57:39.996Z,34.23
2018-11-04T11:00:15.959Z,36.97
2018-11-04T11:02:45.384Z,35.43
2018-11-04T11:05:14.582Z,32.40
2018-11-04T11:07:43.451Z,34.60
2018-11-04T11:10:12.446Z,33.10
2018-11-04T11:12:41.144Z,32.80
2018-11-04T11:15:10.863Z,30.33
2018-11-04T11:17:39.920Z,34.47
2018-11-04T11:20:10.085Z,33.67
2018-11-04T11:22:40.194Z,34.13
2018-11-04T11:25:09.690Z,29.43
2018-11-04T11:27:38.781Z,29.23
2018-11-04T11:30:07.916Z,26.13
2018-11-04T11:32:37.108Z,28.53
2018-11-04T11:35:07.048Z,27.07
2018-11-04T11:37:36.466Z,25.90
2018-11-04T11:40:05.697Z,25.50
2018-11-04T11:42:34.313Z,26.12
2018-11-04T11:45:03.713Z,25.77
2018-11-04T11:52:38.053Z,24.90
2018-11-04T11:55:07.226Z,25.73
2018-11-04T11:57:36.181Z,27.97
2018-11-04T12:00:06.539Z,26.50
2018-11-04T12:02:35.228Z,25.77
2018-11-04T12:05:04.562Z,22.33
2018-11-04T12:07:33.756Z,24.60
2018-11-04T12:10:03.635Z,22.60
2018-11-04T12:12:32.337Z,24.57
2018-11-04T12:15:03.164Z,26.40
2018-11-04T12:17:31.821Z,22.77
2018-11-04T12:20:00.586Z,24.20
2018-11-04T12:22:29.114Z,22.33
2018-11-04T12:24:57.874Z,23.80
2018-11-04T12:27:27.102Z,21.77
2018-11-04T12:29:55.752Z,23.17
2018-11-04T12:32:24.933Z,20.33
2018-11-04T12:34:54.630Z,20.67
2018-11-04T12:37:24.265Z,21.10
2018-11-04T12:39:53.187Z,22.07
2018-11-04T12:42:21.882Z,19.07
2018-11-04T12:44:50.732Z,20.00
2018-11-04T12:47:19.431Z,20.30
2018-11-04T12:49:48.117Z,19.03
2018-11-04T12:52:16.841Z,19.47
2018-11-04T12:54:45.442Z,17.73
2018-11-04T12:57:14.260Z,19.27
2018-11-04T12:59:43.039Z,19.27
2018-11-04T13:02:11.869Z,19.87
2018-11-04T13:04:40.670Z,17.57
2018-11-04T13:07:09.362Z,18.03
2018-11-04T13:09:38.091Z,18.27
2018-11-04T13:12:06.820Z,18.07
2018-11-04T13:14:35.593Z,18.63
2018-11-04T13:17:04.417Z,20.10
2018-11-04T13:19:33.163Z,18.53
2018-11-04T13:22:01.830Z,20.80
2018-11-04T13:24:30.538Z,19.03
2018-11-04T13:26:59.279Z,20.47
2018-11-04T13:29:28.664Z,19.23
2018-11-04T13:31:57.498Z,18.23
2018-11-04T13:34:26.128Z,18.37
2018-11-04T13:36:54.736Z,18.73
2018-11-04T13:39:24.067Z,20.53
2018-11-04T13:41:52.735Z,17.80
2018-11-04T13:44:21.625Z,17.73
2018-11-04T13:46:50.253Z,17.07
2018-11-04T13:49:18.964Z,18.90
2018-11-04T13:51:47.526Z,16.97
2018-11-04T13:54:16.177Z,17.80
2018-11-04T13:56:44.828Z,17.13
2018-11-04T13:59:13.604Z,18.53
2018-11-04T14:01:42.240Z,18.83
2018-11-04T14:04:10.958Z,16.83
2018-11-04T14:06:39.560Z,17.97
2018-11-04T14:09:09.094Z,17.77
2018-11-04T14:11:37.874Z,17.10
2018-11-04T14:14:06.801Z,15.87
2018-11-04T14:16:35.421Z,16.27
2018-11-04T14:19:04.417Z,17.53
2018-11-04T14:21:33.103Z,16.87
2018-11-04T14:24:01.954Z,18.10
2018-11-04T14:26:30.565Z,16.00
2018-11-04T14:28:59.096Z,16.30
2018-11-04T14:31:27.715Z,17.17
2018-11-04T14:33:56.572Z,15.13
2018-11-04T14:36:25.208Z,16.57
2018-11-04T14:38:53.901Z,16.93
2018-11-04T14:41:22.688Z,16.73
2018-11-04T14:43:51.441Z,15.17
2018-11-04T14:46:20.298Z,15.97
2018-11-04T14:48:49.111Z,14.97
2018-11-04T14:51:17.950Z,16.83
2018-11-04T14:53:46.594Z,16.00
2018-11-04T14:56:15.222Z,16.60
2018-11-04T14:58:43.940Z,18.23
2018-11-04T15:01:12.993Z,15.27
2018-11-04T15:03:41.781Z,17.80
2018-11-04T15:06:11.384Z,16.53
2018-11-04T15:08:40.118Z,18.47
2018-11-04T15:11:08.798Z,18.10
2018-11-04T15:13:37.420Z,17.40
2018-11-04T15:16:06.474Z,17.60
2018-11-04T15:18:35.159Z,17.10
2018-11-04T15:21:05.272Z,17.00
2018-11-04T15:23:34.145Z,17.77
2018-11-04T15:26:03.328Z,18.53
2018-11-04T15:28:32.088Z,21.20
2018-11-04T15:31:00.926Z,20.43
2018-11-04T15:33:29.663Z,20.67
2018-11-04T15:35:58.494Z,22.07
2018-11-04T15:38:27.387Z,21.93
2018-11-04T15:40:56.715Z,21.20
2018-11-04T15:43:25.614Z,20.83
2018-11-04T15:45:54.605Z,21.37
2018-11-04T15:48:23.688Z,22.03
2018-11-04T15:50:52.773Z,23.13
2018-11-04T15:53:21.424Z,22.17
2018-11-04T15:55:50.096Z,22.60
2018-11-04T15:58:18.672Z,23.10
2018-11-04T16:00:47.336Z,21.27
2018-11-04T16:03:16.113Z,21.77
2018-11-04T16:05:45.090Z,23.67
2018-11-04T16:08:13.943Z,25.43
2018-11-04T16:10:42.666Z,22.67
2018-11-04T16:13:11.431Z,24.23
2018-11-04T16:15:40.154Z,22.80
2018-11-04T16:18:08.812Z,24.77
2018-11-04T16:20:37.489Z,20.43
2018-11-04T16:23:06.329Z,20.30
2018-11-04T16:25:35.004Z,21.93
2018-11-04T16:28:04.610Z,23.90
2018-11-04T16:30:33.333Z,23.40
2018-11-04T16:33:02.052Z,23.23
2018-11-04T16:35:30.868Z,24.20
2018-11-04T16:37:59.611Z,25.80
2018-11-04T16:40:28.379Z,26.37
2018-11-04T16:42:57.172Z,23.83
2018-11-04T16:45:25.770Z,23.23
2018-11-04T16:47:54.744Z,25.83
2018-11-04T16:50:23.332Z,26.83
2018-11-04T16:52:52.084Z,23.07
2018-11-04T16:55:21.081Z,23.40
2018-11-04T16:57:49.916Z,26.13
2018-11-04T17:00:18.526Z,25.67
2018-11-04T17:02:47.090Z,25.70
2018-11-04T17:05:16.076Z,27.27
2018-11-04T17:07:46.128Z,26.47
2018-11-04T17:10:15.491Z,26.37
2018-11-04T17:12:44.591Z,28.63
2018-11-04T17:15:14.376Z,28.67
2018-11-04T17:17:43.202Z,29.70
2018-11-04T17:20:16.670Z,31.10
2018-11-04T17:22:46.057Z,31.47
2018-11-04T17:25:14.878Z,30.47
2018-11-04T17:27:43.960Z,29.83
2018-11-04T17:30:15.225Z,29.50
2018-11-04T17:32:45.938Z,29.07
2018-11-04T17:35:15.670Z,32.47
2018-11-04T17:37:45.020Z,28.93
2018-11-04T17:40:14.542Z,35.17
2018-11-04T17:42:43.593Z,31.40
2018-11-04T17:45:13.480Z,31.07
2018-11-04T17:47:42.205Z,35.20
2018-11-04T17:50:14.077Z,30.67
2018-11-04T17:52:43.145Z,31.37
2018-11-04T17:55:11.803Z,46.57
2018-11-04T17:57:40.602Z,34.10
2018-11-04T18:00:10.516Z,34.13
2018-11-04T18:02:39.707Z,35.90
2018-11-04T18:05:09.216Z,31.50
2018-11-04T18:07:37.951Z,44.57
2018-11-04T18:10:06.902Z,36.47
2018-11-04T18:12:36.266Z,31.67
2018-11-04T18:15:05.363Z,30.77
2018-11-04T18:17:34.278Z,32.23
2018-11-04T18:20:04.208Z,29.50
2018-11-04T18:22:32.831Z,32.07
2018-11-04T18:25:01.697Z,30.20
2018-11-04T18:27:30.410Z,31.17
2018-11-04T18:29:59.061Z,34.33
2018-11-04T18:32:28.004Z,35.47
2018-11-04T18:34:56.911Z,33.73
2018-11-04T18:37:25.624Z,34.00
2018-11-04T18:39:54.353Z,32.93
2018-11-04T18:42:23.013Z,33.33
2018-11-04T18:44:52.921Z,30.20
2018-11-04T18:47:21.677Z,42.20
2018-11-04T18:49:50.447Z,34.40
2018-11-04T18:52:19.259Z,31.83
2018-11-04T18:54:47.973Z,31.90
2018-11-04T18:57:16.757Z,33.67
2018-11-04T18:59:45.543Z,38.53
2018-11-04T19:02:14.448Z,35.90
2018-11-04T19:04:43.202Z,31.63
2018-11-04T19:07:11.894Z,34.10
2018-11-04T19:09:40.574Z,34.40
2018-11-04T19:12:09.911Z,30.20
2018-11-04T19:14:38.544Z,30.87
2018-11-04T19:17:07.296Z,31.00
2018-11-04T19:19:35.914Z,32.20
2018-11-04T19:22:04.990Z,30.37
2018-11-04T19:24:33.634Z,29.73
2018-11-04T19:27:02.820Z,30.73
2018-11-04T19:29:31.561Z,31.37
2018-11-04T19:32:00.243Z,31.23
2018-11-04T19:34:29.034Z,31.37
2018-11-04T19:36:57.756Z,30.77
2018-11-04T19:39:26.410Z,29.33
2018-11-04T19:41:55.052Z,29.43
2018-11-04T19:44:23.625Z,28.07
2018-11-04T19:46:52.389Z,29.60
2018-11-04T19:49:21.073Z,27.47
2018-11-04T19:51:49.699Z,31.30
2018-11-04T19:54:18.433Z,32.53
2018-11-04T19:56:47.133Z,27.93
2018-11-04T19:59:16.044Z,30.37
2018-11-04T20:01:44.895Z,29.50
2018-11-04T20:04:13.910Z,28.10
2018-11-04T20:06:42.648Z,29.93
2018-11-04T20:09:14.251Z,28.47
2018-11-04T20:11:43.582Z,29.43
2018-11-04T20:14:16.142Z,30.73
2018-11-04T20:16:47.122Z,32.40
2018-11-04T20:19:20.901Z,29.00
2018-11-04T20:21:49.734Z,29.67
2018-11-04T20:24:23.477Z,29.40
2018-11-04T20:26:52.302Z,29.23
2018-11-04T20:29:21.312Z,30.60
2018-11-04T20:31:55.124Z,28.20
2018-11-04T20:34:24.010Z,28.93
2018-11-04T20:36:52.833Z,30.40
2018-11-04T20:39:26.967Z,30.03
2018-11-04T20:41:56.016Z,27.23
2018-11-04T20:44:25.090Z,28.00
2018-11-04T20:46:53.825Z,30.73
2018-11-04T20:49:27.643Z,27.60
2018-11-04T20:51:56.511Z,26.80
2018-11-04T20:54:25.219Z,28.70
2018-11-04T20:56:59.125Z,28.17
2018-11-04T20:59:27.752Z,27.03
2018-11-04T21:01:56.344Z,25.43
2018-11-04T21:04:25.017Z,28.90
2018-11-04T21:06:53.688Z,29.07
2018-11-04T21:09:22.298Z,29.27
2018-11-04T21:11:50.899Z,26.20
2018-11-04T21:14:19.574Z,29.30
2018-11-04T21:16:48.457Z,27.60
2018-11-04T21:19:16.945Z,26.07
2018-11-04T21:21:45.614Z,24.53
2018-11-04T21:24:14.282Z,24.37
2018-11-04T21:26:43.061Z,26.13
2018-11-04T21:29:11.999Z,25.17
2018-11-04T21:31:40.472Z,26.03
2018-11-04T21:34:09.319Z,22.70
2018-11-04T21:36:38.022Z,24.40
2018-11-04T21:39:09.205Z,24.13
2018-11-04T21:41:37.856Z,22.60
2018-11-04T21:44:06.670Z,25.57
2018-11-04T21:46:35.270Z,24.90
2018-11-04T21:49:03.869Z,25.30
2018-11-04T21:51:32.866Z,19.53
2018-11-04T21:54:01.683Z,21.30
2018-11-04T21:56:31.387Z,21.03
2018-11-04T21:58:59.961Z,20.70
2018-11-04T22:01:28.726Z,19.97
2018-11-04T22:03:57.694Z,21.90
2018-11-04T22:06:26.152Z,22.63
2018-11-04T22:08:54.747Z,23.10
2018-11-04T22:11:23.421Z,23.00
2018-11-04T22:13:52.202Z,21.27
2018-11-04T22:16:20.753Z,22.87
2018-11-04T22:18:49.470Z,22.03
2018-11-04T22:21:18.497Z,23.07
2018-11-04T22:23:47.193Z,20.90
2018-11-04T22:26:15.878Z,20.20
2018-11-04T22:28:44.477Z,19.80
2018-11-04T22:31:13.065Z,20.83
2018-11-04T22:33:41.587Z,18.33
2018-11-04T22:36:10.513Z,22.30
2018-11-04T22:38:39.294Z,19.87
2018-11-04T22:41:07.954Z,19.80
2018-11-04T22:43:36.849Z,21.87
2018-11-04T22:46:06.024Z,22.07
2018-11-04T22:48:34.812Z,19.90
2018-11-04T22:51:03.610Z,18.53
2018-11-04T22:53:32.893Z,20.30
2018-11-04T22:56:03.467Z,19.53
2018-11-04T22:58:32.145Z,18.53
2018-11-04T23:01:02.191Z,21.90
2018-11-04T23:03:30.907Z,19.83
2018-11-04T23:06:05.034Z,18.90
2018-11-04T23:08:33.962Z,19.43
2018-11-04T23:11:03.334Z,20.13
2018-11-04T23:13:32.358Z,19.40
2018-11-04T23:16:02.602Z,20.87
2018-11-04T23:18:31.400Z,17.73
2018-11-04T23:21:00.108Z,18.03
2018-11-04T23:23:28.862Z,18.70
2018-11-04T23:25:57.548Z,18.73
2018-11-04T23:28:26.211Z,19.23
2018-11-04T23:30:54.881Z,19.83
2018-11-04T23:33:23.451Z,20.57
2018-11-04T23:35:52.122Z,19.70
2018-11-04T23:38:20.789Z,19.23
2018-11-04T23:40:49.518Z,18.87
2018-11-04T23:43:18.157Z,17.87
2018-11-04T23:45:46.811Z,19.23
2018-11-04T23:48:15.412Z,17.77
2018-11-04T23:50:44.170Z,19.37
2018-11-04T23:53:13.323Z,18.37
2018-11-04T23:55:42.350Z,19.93
2018-11-04T23:58:11.770Z,18.40
